Time;durP1;ratioP1;P1;durP2;ratioP2;P2;SDS_P1;SDS_P2;PMS_P1;PMS_P2;Temp;Humidity;BMP_temperature;BMP_pressure;BME280_temperature;BME280_humidity;BME280_pressure;Samples;Min_cycle;Max_cycle;Signal;HPM_P1;HPM_P2
2023/05/26 00:03:56;;;;;;;0.85;0.60;;;20.10;58.00;;;;;;8462287;28;20297;-43
2023/05/26 00:07:57;;;;;;;0.80;0.80;;;20.10;58.00;;;;;;8461979;28;20042;-44
2023/05/26 00:11:58;;;;;;;1.67;0.83;;;20.10;58.00;;;;;;8462201;28;20027;-44
2023/05/26 00:16:00;;;;;;;0.80;0.80;;;20.10;58.00;;;;;;8462261;28;20742;-43
2023/05/26 00:20:00;;;;;;;0.60;0.60;;;20.10;58.00;;;;;;8461609;28;20040;-43
2023/05/26 00:24:02;;;;;;;0.87;0.77;;;20.10;58.60;;;;;;8461176;27;20612;-44
2023/05/26 00:28:02;;;;;;;;;;;20.10;58.00;;;;;;8461933;28;20296;-44
2023/05/26 00:32:06;;;;;;;0.60;0.60;;;20.10;58.00;;;;;;8461247;28;19903;-44
2023/05/26 00:36:07;;;;;;;0.73;0.73;;;20.10;58.00;;;;;;8443171;28;20491;-44
2023/05/26 00:40:08;;;;;;;1.13;0.80;;;20.10;58.00;;;;;;8461239;28;20050;-44
2023/05/26 00:44:09;;;;;;;1.13;1.00;;;20.10;58.00;;;;;;8460835;28;20508;-44
2023/05/26 00:48:10;;;;;;;;;;;20.10;58.00;;;;;;8461285;28;20645;-43
2023/05/26 00:52:11;;;;;;;1.13;0.80;;;20.10;58.00;;;;;;8461339;27;19967;-45
2023/05/26 00:56:14;;;;;;;;;;;20.10;58.00;;;;;;8461011;28;20023;-44
2023/05/26 01:00:15;;;;;;;0.60;0.60;;;20.10;58.00;;;;;;8460439;28;19939;-44
2023/05/26 01:04:16;;;;;;;0.60;0.60;;;20.10;58.00;;;;;;8460186;28;20051;-44
2023/05/26 01:08:16;;;;;;;0.77;0.77;;;20.10;58.00;;;;;;8460987;28;20479;-44
2023/05/26 01:12:29;;;;;;;0.70;0.70;;;20.10;58.00;;;;;;8460201;28;20016;-43
2023/05/26 01:16:35;;;;;;;0.73;0.73;;;20.10;58.00;;;;;;8459978;28;20114;-43
2023/05/26 01:20:40;;;;;;;0.93;0.80;;;20.10;58.00;;;;;;8460069;28;20661;-44
2023/05/26 01:25:00;;;;;;;0.80;0.80;;;20.10;58.10;;;;;;8460516;27;20034;-44
2023/05/26 01:29:28;;;;;;;0.60;0.60;;;20.10;58.10;;;;;;8460122;28;20031;-43
2023/05/26 01:33:29;;;;;;;0.95;0.90;;;20.10;58.10;;;;;;8459014;28;20132;-44
2023/05/26 01:37:29;;;;;;;0.60;0.60;;;20.00;58.00;;;;;;8467140;28;20032;-43
2023/05/26 01:41:42;;;;;;;0.88;0.73;;;20.10;58.00;;;;;;8466812;28;20024;-44
2023/05/26 01:45:59;;;;;;;0.63;0.63;;;20.10;58.10;;;;;;8448412;28;20024;-44
2023/05/26 01:50:03;;;;;;;1.02;0.98;;;20.00;58.00;;;;;;8466444;28;20031;-44
2023/05/26 01:54:10;;;;;;;0.90;0.90;;;20.10;58.10;;;;;;8467602;27;20080;-44
2023/05/26 01:58:12;;;;;;;0.77;0.75;;;20.10;58.10;;;;;;8466113;28;20024;-44
2023/05/26 02:02:13;;;;;;;0.77;0.77;;;20.10;58.10;;;;;;8466071;28;20031;-44
2023/05/26 02:06:13;;;;;;;0.70;0.70;;;20.10;58.00;;;;;;8465724;28;20075;-44
2023/05/26 02:10:14;;;;;;;1.00;0.88;;;20.10;58.00;;;;;;8465968;28;20027;-44
2023/05/26 02:14:15;;;;;;;0.90;0.87;;;20.10;58.00;;;;;;8465679;28;20036;-44
2023/05/26 02:18:16;;;;;;;0.80;0.80;;;20.10;58.00;;;;;;8466040;28;20273;-44
2023/05/26 02:22:16;;;;;;;0.80;0.80;;;20.10;58.00;;;;;;8466010;27;20430;-44
2023/05/26 02:26:17;;;;;;;0.70;0.70;;;20.00;58.00;;;;;;8465205;28;20111;-44
2023/05/26 02:30:18;;;;;;;1.08;0.82;;;20.10;58.00;;;;;;8465427;28;20469;-44
2023/05/26 02:34:18;;;;;;;0.80;0.80;;;20.00;58.00;;;;;;8464887;28;20144;-45
2023/05/26 02:38:19;;;;;;;1.10;0.90;;;20.10;58.00;;;;;;8465056;28;20288;-42
2023/05/26 02:42:19;;;;;;;1.10;0.80;;;20.00;58.00;;;;;;8465032;28;20299;-42
2023/05/26 02:46:20;;;;;;;0.70;0.70;;;20.10;58.00;;;;;;8463425;28;20295;-43
2023/05/26 02:50:22;;;;;;;0.60;0.60;;;20.00;58.00;;;;;;8464457;28;20281;-44
2023/05/26 02:54:22;;;;;;;0.77;0.77;;;20.00;58.00;;;;;;8465194;27;20326;-44
2023/05/26 02:58:23;;;;;;;0.80;0.80;;;20.10;58.10;;;;;;8464062;28;20076;-44
2023/05/26 03:02:24;;;;;;;1.02;0.80;;;20.00;58.10;;;;;;8464222;28;20289;-44
2023/05/26 03:06:25;;;;;;;1.17;0.93;;;20.00;58.00;;;;;;8463646;28;20055;-45
2023/05/26 03:10:25;;;;;;;1.02;0.90;;;20.00;58.10;;;;;;8463853;28;20035;-43
2023/05/26 03:14:26;;;;;;;0.82;0.80;;;20.00;58.10;;;;;;8464016;28;20039;-44
2023/05/26 03:18:27;;;;;;;1.10;1.00;;;20.10;58.60;;;;;;8463731;28;20028;-44
2023/05/26 03:22:27;;;;;;;0.80;0.77;;;20.10;58.00;;;;;;8464085;27;20038;-44
2023/05/26 03:26:28;;;;;;;0.90;0.90;;;20.10;58.10;;;;;;8462706;28;20346;-43
2023/05/26 03:30:29;;;;;;;0.85;0.80;;;20.00;58.00;;;;;;8463075;28;20280;-44
2023/05/26 03:34:29;;;;;;;0.90;0.90;;;20.00;58.00;;;;;;8463028;28;20016;-44
2023/05/26 03:38:30;;;;;;;0.80;0.70;;;20.00;58.00;;;;;;8463132;28;20035;-44
2023/05/26 03:42:31;;;;;;;0.70;0.70;;;20.00;58.00;;;;;;8444686;28;20032;-44
2023/05/26 03:46:31;;;;;;;0.80;0.80;;;20.00;58.00;;;;;;8478482;27;20035;-45
2023/05/26 03:50:32;;;;;;;0.70;0.70;;;20.10;58.10;;;;;;8462617;28;20031;-44
2023/05/26 03:54:32;;;;;;;1.10;1.00;;;20.10;58.10;;;;;;8463366;27;20035;-44
2023/05/26 03:58:33;;;;;;;1.08;0.98;;;20.10;58.10;;;;;;8461873;28;20051;-44
2023/05/26 04:02:34;;;;;;;1.13;0.75;;;20.00;58.00;;;;;;8462369;28;20031;-44
2023/05/26 04:06:35;;;;;;;0.70;0.70;;;20.00;58.00;;;;;;8461996;28;20043;-44
2023/05/26 04:10:35;;;;;;;0.80;0.80;;;20.00;58.00;;;;;;8462005;28;20507;-44
2023/05/26 04:14:36;;;;;;;0.70;0.70;;;20.10;57.90;;;;;;8461965;28;20027;-44
2023/05/26 04:18:36;;;;;;;0.83;0.83;;;20.20;57.70;;;;;;8443383;28;20372;-44
2023/05/26 04:22:38;;;;;;;0.90;0.50;;;20.20;57.60;;;;;;8443872;27;20630;-44
2023/05/26 04:26:40;;;;;;;0.70;0.70;;;20.30;57.60;;;;;;8461340;28;20319;-44
2023/05/26 04:30:42;;;;;;;0.93;0.70;;;20.30;57.40;;;;;;8461360;28;20032;-44
2023/05/26 04:34:44;;;;;;;0.80;0.80;;;20.30;57.40;;;;;;8461291;28;20107;-44
2023/05/26 04:38:47;;;;;;;0.80;0.70;;;20.30;57.40;;;;;;8461042;28;20028;-45
2023/05/26 04:42:48;;;;;;;0.80;0.80;;;20.30;57.40;;;;;;8461109;28;20070;-44
2023/05/26 04:46:49;;;;;;;0.80;0.80;;;20.30;57.40;;;;;;8461030;28;20032;-44
2023/05/26 04:50:50;;;;;;;1.73;0.90;;;20.30;57.30;;;;;;8461107;28;20087;-44
2023/05/26 04:54:50;;;;;;;0.80;0.80;;;20.30;57.30;;;;;;8461304;27;20980;-44
2023/05/26 04:58:52;;;;;;;1.10;1.00;;;20.30;57.30;;;;;;8442556;28;20637;-45
2023/05/26 05:02:52;;;;;;;0.90;0.90;;;20.30;57.30;;;;;;8460462;28;20285;-44
2023/05/26 05:06:54;;;;;;;1.15;0.90;;;20.40;57.20;;;;;;8460148;28;20128;-45
2023/05/26 05:10:55;;;;;;;0.80;0.80;;;20.40;57.20;;;;;;8460045;28;20031;-46
2023/05/26 05:14:56;;;;;;;1.07;0.90;;;20.40;57.20;;;;;;8460052;28;20156;-44
2023/05/26 05:18:56;;;;;;;1.40;0.98;;;20.30;57.10;;;;;;8460478;28;20028;-44
2023/05/26 05:22:57;;;;;;;0.93;0.93;;;20.30;57.20;;;;;;8460895;27;20520;-45
2023/05/26 05:26:58;;;;;;;2.33;0.77;;;20.30;57.20;;;;;;8460018;28;20027;-44
2023/05/26 05:30:59;;;;;;;;;;;20.30;57.30;;;;;;8460647;28;20542;-44
2023/05/26 05:34:59;;;;;;;0.90;0.80;;;20.30;57.30;;;;;;8460021;28;20324;-44
2023/05/26 05:39:00;;;;;;;1.42;1.00;;;20.30;57.30;;;;;;8460054;28;20028;-44
2023/05/26 05:43:01;;;;;;;1.83;0.90;;;20.30;57.30;;;;;;8459890;28;20028;-44
2023/05/26 05:47:01;;;;;;;0.97;0.73;;;20.30;57.30;;;;;;8459994;28;20305;-44
2023/05/26 05:51:02;;;;;;;0.95;0.85;;;20.30;57.40;;;;;;8459635;28;20081;-45
2023/05/26 05:55:03;;;;;;;0.88;0.80;;;20.30;57.40;;;;;;8460659;27;20059;-44
2023/05/26 05:59:03;;;;;;;0.77;0.77;;;20.30;57.40;;;;;;8459596;28;20447;-44
2023/05/26 06:03:04;;;;;;;1.42;0.82;;;20.30;57.30;;;;;;8459479;28;20015;-44
2023/05/26 06:07:05;;;;;;;1.05;0.93;;;20.30;57.30;;;;;;8459703;28;20499;-45
2023/05/26 06:11:06;;;;;;;1.02;1.00;;;20.30;57.30;;;;;;8459354;28;20036;-45
2023/05/26 06:15:08;;;;;;;1.33;1.00;;;20.30;57.70;;;;;;8459444;28;20023;-45
2023/05/26 06:19:08;;;;;;;1.10;0.80;;;20.40;57.20;;;;;;8460161;28;20080;-44
2023/05/26 06:23:09;;;;;;;0.90;0.90;;;20.30;57.70;;;;;;8465932;27;20032;-44
2023/05/26 06:27:10;;;;;;;0.93;0.70;;;20.30;57.20;;;;;;8465555;28;20643;-45
2023/05/26 06:31:10;;;;;;;0.80;0.80;;;20.30;57.30;;;;;;8465386;28;20429;-44
2023/05/26 06:35:12;;;;;;;0.85;0.85;;;20.30;57.30;;;;;;8465005;28;20494;-44
2023/05/26 06:39:13;;;;;;;0.90;0.90;;;20.30;57.20;;;;;;8465301;28;20587;-45
2023/05/26 06:43:13;;;;;;;1.38;0.80;;;20.30;57.10;;;;;;8465069;28;20576;-44
2023/05/26 06:47:15;;;;;;;1.10;1.00;;;20.30;57.20;;;;;;8464701;28;20377;-44
2023/05/26 06:51:16;;;;;;;0.98;0.80;;;20.30;57.20;;;;;;8464584;28;20023;-45
2023/05/26 06:55:16;;;;;;;2.77;1.00;;;20.30;57.20;;;;;;8465359;27;20496;-44
2023/05/26 06:59:17;;;;;;;0.82;0.80;;;20.30;57.70;;;;;;8464956;28;20277;-44
2023/05/26 07:03:18;;;;;;;0.80;0.80;;;20.30;57.20;;;;;;8464209;28;20052;-46
2023/05/26 07:07:18;;;;;;;1.20;1.10;;;20.30;57.20;;;;;;8464107;28;20024;-44
2023/05/26 07:11:19;;;;;;;1.00;0.77;;;20.30;57.20;;;;;;8464415;28;20276;-45
2023/05/26 07:15:20;;;;;;;0.98;0.80;;;20.30;57.30;;;;;;8463951;28;20141;-44
2023/05/26 07:19:20;;;;;;;1.10;1.00;;;20.30;57.20;;;;;;8463720;28;20043;-45
2023/05/26 07:23:21;;;;;;;0.87;0.80;;;20.30;57.20;;;;;;8464362;27;20027;-44
2023/05/26 07:27:21;;;;;;;1.10;0.90;;;20.30;57.20;;;;;;8463633;28;20022;-45
2023/05/26 07:31:22;;;;;;;0.80;0.80;;;20.30;57.20;;;;;;8462752;28;20031;-44
2023/05/26 07:35:23;;;;;;;0.82;0.82;;;20.30;57.30;;;;;;8463348;28;20031;-44
2023/05/26 07:39:23;;;;;;;0.77;0.77;;;20.30;57.30;;;;;;8463959;28;20106;-44
2023/05/26 07:43:24;;;;;;;1.10;1.00;;;20.30;57.40;;;;;;8463590;28;20032;-44
2023/05/26 07:47:25;;;;;;;0.87;0.80;;;20.30;57.40;;;;;;8462835;28;20297;-44
2023/05/26 07:51:25;;;;;;;1.20;1.10;;;20.20;57.30;;;;;;8462666;28;20031;-45
2023/05/26 07:55:26;;;;;;;1.90;0.93;;;20.30;57.30;;;;;;8463592;27;20036;-44
2023/05/26 07:59:27;;;;;;;1.08;0.88;;;20.30;57.40;;;;;;8462331;28;20777;-44
2023/05/26 08:03:27;;;;;;;1.07;0.93;;;20.30;57.50;;;;;;8462188;28;20067;-44
2023/05/26 08:07:28;;;;;;;1.07;1.00;;;20.30;57.40;;;;;;8462133;28;20320;-44
2023/05/26 08:11:29;;;;;;;0.60;0.60;;;20.30;57.50;;;;;;8462175;28;20055;-44
2023/05/26 08:15:30;;;;;;;1.00;0.90;;;20.30;57.40;;;;;;8462143;28;20073;-44
2023/05/26 08:19:30;;;;;;;0.60;0.60;;;20.30;57.30;;;;;;8461743;28;20024;-44
2023/05/26 08:23:31;;;;;;;0.73;0.73;;;20.30;57.70;;;;;;8462433;27;20032;-44
2023/05/26 08:27:32;;;;;;;0.90;0.90;;;20.40;57.20;;;;;;8461377;28;20023;-44
2023/05/26 08:31:32;;;;;;;0.95;0.85;;;20.40;57.10;;;;;;8461324;28;20353;-44
2023/05/26 08:35:33;;;;;;;1.55;0.95;;;20.40;57.10;;;;;;8461491;28;20511;-44
2023/05/26 08:39:33;;;;;;;0.70;0.70;;;20.40;57.10;;;;;;8461124;28;20028;-45
2023/05/26 08:43:50;;;;;;;1.00;0.90;;;20.40;57.00;;;;;;8460047;28;20280;-44
2023/05/26 08:47:52;;;;;;;1.13;0.93;;;20.40;57.00;;;;;;8460674;28;20281;-44
2023/05/26 08:52:04;;;;;;;1.10;0.90;;;20.40;57.10;;;;;;8461559;27;20486;-44
2023/05/26 08:56:07;;;;;;;1.00;0.90;;;20.40;57.10;;;;;;8460569;28;20484;-44
2023/05/26 09:00:12;;;;;;;0.82;0.82;;;20.40;57.00;;;;;;8460610;28;20080;-44
2023/05/26 09:04:13;;;;;;;0.90;0.90;;;20.40;57.10;;;;;;8447180;28;20101;-44
2023/05/26 09:08:13;;;;;;;1.25;0.90;;;20.40;57.10;;;;;;8426578;28;20039;-44
2023/05/26 09:12:14;;;;;;;0.60;0.60;;;20.40;57.10;;;;;;8426652;28;20020;-44
2023/05/26 09:16:15;;;;;;;0.82;0.82;;;20.40;57.10;;;;;;8426458;28;20112;-44
2023/05/26 09:20:16;;;;;;;1.00;0.90;;;20.40;57.10;;;;;;8426428;28;20401;-44
2023/05/26 09:24:19;;;;;;;1.20;0.95;;;20.30;57.20;;;;;;8426620;27;20716;-45
2023/05/26 09:28:22;;;;;;;0.77;0.77;;;20.30;57.30;;;;;;8426616;28;20028;-44
2023/05/26 09:32:28;;;;;;;1.10;1.00;;;20.30;57.40;;;;;;8426317;28;20145;-45
2023/05/26 09:36:36;;;;;;;1.02;0.93;;;20.30;57.40;;;;;;8426038;28;20028;-44
2023/05/26 09:40:55;;;;;;;1.08;0.80;;;20.20;57.50;;;;;;8426163;28;20520;-44
2023/05/26 09:44:56;;;;;;;0.90;0.88;;;20.20;58.10;;;;;;8441741;28;20025;-44
2023/05/26 09:48:56;;;;;;;1.52;0.82;;;20.20;57.60;;;;;;8426118;28;20557;-44
2023/05/26 09:52:59;;;;;;;0.93;0.90;;;20.20;57.60;;;;;;8426449;28;20093;-44
2023/05/26 09:57:02;;;;;;;0.90;0.90;;;20.10;57.70;;;;;;8431701;28;20667;-44
2023/05/26 10:01:03;;;;;;;1.00;0.90;;;20.10;57.70;;;;;;8432323;28;20035;-45
2023/05/26 10:05:05;;;;;;;0.80;0.80;;;20.10;57.70;;;;;;8414722;28;20118;-44
2023/05/26 10:09:07;;;;;;;1.08;0.90;;;20.10;57.70;;;;;;8398782;28;20024;-44
2023/05/26 10:13:09;;;;;;;0.90;0.90;;;20.10;57.70;;;;;;8398906;28;20409;-44
2023/05/26 10:17:10;;;;;;;1.38;1.00;;;20.10;57.80;;;;;;8398354;28;20028;-44
2023/05/26 10:21:12;;;;;;;1.00;0.90;;;20.10;57.70;;;;;;8398457;28;20029;-45
2023/05/26 10:25:42;;;;;;;1.00;0.90;;;20.10;57.70;;;;;;8398936;28;20488;-44
2023/05/26 10:29:48;;;;;;;0.90;0.90;;;20.10;57.70;;;;;;8387071;28;20043;-44
2023/05/26 10:33:49;;;;;;;0.80;0.70;;;20.10;57.70;;;;;;8397836;28;20078;-44
2023/05/26 10:38:01;;;;;;;1.10;1.00;;;20.10;57.70;;;;;;8397963;28;20029;-44
2023/05/26 10:42:18;;;;;;;0.82;0.80;;;20.10;57.70;;;;;;8397906;28;20283;-44
2023/05/26 10:46:19;;;;;;;1.88;1.20;;;20.10;57.70;;;;;;8397536;28;20486;-45
2023/05/26 10:50:19;;;;;;;1.33;1.20;;;20.10;57.70;;;;;;8397548;28;20381;-45
2023/05/26 10:54:24;;;;;;;1.35;1.15;;;20.10;57.60;;;;;;8398036;28;20029;-45
2023/05/26 10:58:36;;;;;;;1.02;1.02;;;20.10;57.70;;;;;;8397171;28;20039;-44
2023/05/26 11:02:37;;;;;;;0.80;0.80;;;20.10;58.20;;;;;;8398139;28;20032;-43
2023/05/26 11:06:51;;;;;;;0.98;0.93;;;20.10;57.70;;;;;;8422331;28;20036;-44
2023/05/26 11:11:02;;;;;;;1.20;1.10;;;20.10;57.80;;;;;;8429034;28;20115;-44
2023/05/26 11:15:28;;;;;;;0.80;0.80;;;20.10;57.70;;;;;;8430422;28;20020;-44
2023/05/26 11:19:32;;;;;;;1.15;1.05;;;20.10;57.80;;;;;;8430082;28;20032;-45
2023/05/26 11:23:35;;;;;;;1.17;1.08;;;20.10;57.70;;;;;;8430593;27;20397;-44
2023/05/26 11:27:36;;;;;;;1.50;0.98;;;20.10;57.70;;;;;;8429826;28;20067;-44
2023/05/26 11:31:38;;;;;;;1.00;0.90;;;20.10;57.70;;;;;;8429855;28;20036;-44
2023/05/26 11:35:39;;;;;;;0.98;0.98;;;20.10;57.70;;;;;;8429610;28;20282;-44
2023/05/26 11:39:41;;;;;;;1.20;1.10;;;20.10;57.70;;;;;;8429534;28;20032;-45
2023/05/26 11:43:44;;;;;;;1.13;1.02;;;20.10;57.70;;;;;;8429151;28;20481;-44
2023/05/26 11:47:47;;;;;;;1.08;0.90;;;20.10;57.70;;;;;;8427900;28;20032;-43
2023/05/26 11:51:50;;;;;;;1.90;1.00;;;20.20;57.60;;;;;;8429830;27;20039;-44
2023/05/26 11:56:00;;;;;;;0.90;0.90;;;20.20;57.60;;;;;;8428903;28;20032;-44
2023/05/26 12:00:09;;;;;;;1.33;0.80;;;20.20;57.60;;;;;;8428831;28;20074;-44
2023/05/26 12:04:09;;;;;;;1.23;1.13;;;20.20;57.60;;;;;;8418623;28;20056;-44
2023/05/26 12:08:10;;;;;;;0.98;0.88;;;20.20;57.60;;;;;;8394676;28;20085;-44
2023/05/26 12:12:11;;;;;;;1.45;1.10;;;20.20;57.60;;;;;;8394724;28;20056;-44
2023/05/26 12:16:29;;;;;;;1.10;1.00;;;20.20;57.60;;;;;;8394670;28;20039;-44
2023/05/26 12:20:31;;;;;;;0.80;0.80;;;20.10;57.50;;;;;;8394478;28;20081;-44
2023/05/26 12:24:34;;;;;;;0.90;0.75;;;20.20;57.60;;;;;;8394674;28;20575;-44
2023/05/26 12:28:34;;;;;;;0.77;0.77;;;20.20;57.60;;;;;;8394318;28;20101;-44
2023/05/26 12:32:35;;;;;;;0.80;0.80;;;20.20;57.60;;;;;;8394149;28;20074;-44
2023/05/26 12:36:36;;;;;;;1.10;1.00;;;20.20;57.50;;;;;;8394203;28;20059;-44
2023/05/26 12:40:37;;;;;;;1.23;1.13;;;20.20;57.50;;;;;;8394129;28;20325;-45
2023/05/26 12:44:38;;;;;;;2.23;1.00;;;20.20;57.50;;;;;;8394521;28;20036;-44
2023/05/26 12:48:38;;;;;;;1.00;0.90;;;20.20;57.50;;;;;;8393648;28;20389;-44
2023/05/26 12:52:39;;;;;;;2.17;1.30;;;20.20;57.50;;;;;;8394021;28;20043;-44
2023/05/26 12:56:40;;;;;;;1.10;0.98;;;20.20;57.50;;;;;;8393495;28;20033;-44
2023/05/26 13:00:40;;;;;;;1.23;1.13;;;20.20;57.50;;;;;;8393801;28;20036;-44
2023/05/26 13:04:42;;;;;;;1.57;1.10;;;20.20;57.40;;;;;;8407704;28;20121;-44
2023/05/26 13:08:43;;;;;;;0.93;0.82;;;20.20;57.40;;;;;;8426581;28;20282;-44
2023/05/26 13:12:44;;;;;;;1.40;1.00;;;20.20;57.50;;;;;;8426781;28;20081;-44
2023/05/26 13:16:45;;;;;;;;;;;20.20;58.00;;;;;;8427121;28;20028;-44
2023/05/26 13:20:46;;;;;;;1.30;1.20;;;20.20;57.50;;;;;;8426263;28;19904;-44
2023/05/26 13:24:47;;;;;;;1.08;1.08;;;20.20;57.50;;;;;;8426935;28;20107;-44
2023/05/26 13:28:48;;;;;;;1.13;1.00;;;20.20;57.50;;;;;;8425533;28;20031;-44
2023/05/26 13:32:50;;;;;;;1.35;1.25;;;20.20;57.50;;;;;;8426160;28;20273;-46
2023/05/26 13:36:50;;;;;;;;;;;20.20;57.50;;;;;;8426812;28;20024;-44
2023/05/26 13:40:51;;;;;;;0.90;0.80;;;20.20;57.50;;;;;;8426120;28;19911;-45
2023/05/26 13:44:52;;;;;;;1.00;1.00;;;20.20;57.50;;;;;;8425840;28;20032;-45
2023/05/26 13:48:52;;;;;;;1.10;1.00;;;20.30;57.50;;;;;;8425932;28;20282;-44
2023/05/26 13:52:53;;;;;;;1.20;0.90;;;20.20;57.40;;;;;;8408056;28;20153;-45
2023/05/26 13:56:54;;;;;;;1.60;1.02;;;20.20;57.40;;;;;;8407678;28;20173;-44
2023/05/26 14:00:55;;;;;;;1.30;1.17;;;20.20;57.40;;;;;;8425831;28;20085;-44
2023/05/26 14:04:55;;;;;;;1.43;1.20;;;20.30;57.40;;;;;;8425331;28;20505;-45
2023/05/26 14:08:56;;;;;;;1.27;1.03;;;20.30;57.50;;;;;;8425525;28;20301;-44
2023/05/26 14:12:57;;;;;;;1.20;1.10;;;20.30;57.40;;;;;;8425928;28;20361;-44
2023/05/26 14:16:57;;;;;;;1.40;1.20;;;20.30;57.40;;;;;;8425492;28;20286;-44
2023/05/26 14:20:58;;;;;;;1.80;1.05;;;20.30;57.40;;;;;;8425523;28;20524;-44
2023/05/26 14:24:59;;;;;;;1.00;0.90;;;20.30;57.40;;;;;;8425767;28;20031;-44
2023/05/26 14:28:59;;;;;;;1.30;1.20;;;20.30;57.40;;;;;;8425251;28;20040;-44
2023/05/26 14:33:03;;;;;;;1.42;1.10;;;20.20;57.40;;;;;;8425310;28;20422;-45
2023/05/26 14:37:04;;;;;;;1.35;1.10;;;20.20;57.50;;;;;;8425292;28;20032;-44
2023/05/26 14:41:05;;;;;;;0.98;0.88;;;20.20;57.50;;;;;;8425848;28;20020;-43
2023/05/26 14:45:06;;;;;;;1.23;1.08;;;20.20;57.50;;;;;;8431429;28;20034;-44
2023/05/26 14:49:08;;;;;;;1.83;1.08;;;20.20;57.50;;;;;;8431087;28;20055;-44
2023/05/26 14:53:08;;;;;;;1.10;1.02;;;20.20;57.50;;;;;;8431137;28;20099;-44
2023/05/26 14:57:09;;;;;;;1.13;1.03;;;20.20;58.00;;;;;;8446469;28;20039;-44
2023/05/26 15:01:09;;;;;;;0.80;0.80;;;20.20;57.50;;;;;;8430669;28;20938;-44
2023/05/26 15:05:10;;;;;;;1.10;1.00;;;20.20;57.50;;;;;;8430653;28;20440;-44
2023/05/26 15:09:12;;;;;;;1.23;1.00;;;20.20;57.50;;;;;;8430122;28;20092;-45
2023/05/26 15:13:13;;;;;;;1.23;1.13;;;20.20;57.60;;;;;;8412068;28;20032;-44
2023/05/26 15:17:14;;;;;;;1.10;1.00;;;20.20;57.50;;;;;;8430436;28;20027;-45
2023/05/26 15:21:14;;;;;;;1.23;1.00;;;20.20;57.50;;;;;;8429873;28;20643;-44
2023/05/26 15:25:15;;;;;;;1.08;0.98;;;20.20;57.60;;;;;;8430456;28;20032;-44
2023/05/26 15:29:16;;;;;;;0.80;0.80;;;20.20;57.60;;;;;;8429532;28;20078;-44
2023/05/26 15:33:16;;;;;;;1.17;1.07;;;20.20;57.60;;;;;;8429676;28;20032;-45
2023/05/26 15:37:17;;;;;;;1.13;1.02;;;20.20;57.60;;;;;;8445254;28;20032;-45
2023/05/26 15:41:18;;;;;;;1.20;1.10;;;20.20;57.60;;;;;;8429769;28;20038;-45
2023/05/26 15:45:18;;;;;;;1.10;1.00;;;20.20;57.60;;;;;;8429112;28;20024;-44
2023/05/26 15:49:24;;;;;;;1.45;0.98;;;20.20;57.60;;;;;;8429116;28;20075;-44
2023/05/26 15:53:25;;;;;;;1.17;1.08;;;20.20;57.60;;;;;;8410879;28;20077;-44
2023/05/26 15:57:26;;;;;;;2.53;1.13;;;20.20;57.60;;;;;;8428977;28;20081;-44
2023/05/26 16:01:27;;;;;;;1.25;0.90;;;20.20;57.60;;;;;;8410773;28;20043;-44
2023/05/26 16:05:27;;;;;;;1.35;1.20;;;20.20;57.60;;;;;;8428353;28;20638;-44
2023/05/26 16:09:28;;;;;;;1.17;1.07;;;20.20;57.60;;;;;;8428444;28;20028;-44
2023/05/26 16:13:29;;;;;;;1.48;1.25;;;20.20;57.60;;;;;;8428397;28;20350;-45
2023/05/26 16:17:30;;;;;;;0.70;0.70;;;20.20;57.60;;;;;;8428354;28;20028;-44
2023/05/26 16:21:30;;;;;;;1.07;1.07;;;20.20;57.60;;;;;;8428271;28;20089;-44
2023/05/26 16:25:31;;;;;;;1.17;1.08;;;20.20;57.60;;;;;;8428111;28;20040;-44
2023/05/26 16:29:33;;;;;;;1.00;0.90;;;20.20;57.60;;;;;;8427884;28;20027;-44
2023/05/26 16:33:34;;;;;;;1.30;1.02;;;20.20;57.60;;;;;;8427760;28;20716;-44
2023/05/26 16:37:35;;;;;;;1.27;1.17;;;20.20;57.60;;;;;;8427728;28;20527;-45
2023/05/26 16:41:35;;;;;;;1.10;1.00;;;20.20;57.60;;;;;;8427783;28;20031;-44
2023/05/26 16:45:36;;;;;;;1.10;1.00;;;20.20;57.60;;;;;;8427307;28;20034;-44
2023/05/26 16:49:37;;;;;;;1.10;1.00;;;20.20;57.60;;;;;;8427301;28;20104;-44
2023/05/26 16:53:37;;;;;;;0.80;0.70;;;20.20;57.60;;;;;;8427462;28;20325;-44
2023/05/26 16:57:38;;;;;;;1.40;1.30;;;20.20;57.60;;;;;;8426888;28;20039;-44
2023/05/26 17:01:39;;;;;;;1.38;1.00;;;20.20;57.60;;;;;;8427012;28;20762;-44
2023/05/26 17:05:40;;;;;;;1.25;1.15;;;20.20;57.50;;;;;;8425872;28;20516;-44
2023/05/26 17:09:40;;;;;;;;;;;20.20;57.60;;;;;;8442850;28;20035;-44
2023/05/26 17:13:41;;;;;;;1.20;1.10;;;20.20;57.50;;;;;;8426750;28;19904;-44
2023/05/26 17:17:42;;;;;;;1.63;1.10;;;20.20;57.60;;;;;;8426562;28;20063;-44
2023/05/26 17:21:43;;;;;;;;;;;20.20;57.50;;;;;;8426850;28;20288;-44
2023/05/26 17:25:45;;;;;;;1.77;1.20;;;20.20;57.50;;;;;;8426855;28;19908;-44
2023/05/26 17:29:45;;;;;;;0.90;0.90;;;20.20;57.60;;;;;;8426209;28;20024;-45
2023/05/26 17:33:47;;;;;;;1.10;1.00;;;20.20;57.50;;;;;;8426229;28;20042;-44
2023/05/26 17:37:48;;;;;;;1.20;1.10;;;20.20;57.50;;;;;;8426543;28;20477;-44
2023/05/26 17:41:48;;;;;;;1.73;1.40;;;20.20;57.60;;;;;;8426209;28;20553;-45
2023/05/26 17:45:49;;;;;;;1.55;1.25;;;20.20;57.60;;;;;;8425874;28;20070;-44
2023/05/26 17:49:50;;;;;;;1.35;1.13;;;20.20;57.60;;;;;;8426215;28;20032;-44
2023/05/26 17:53:51;;;;;;;1.00;0.90;;;20.20;57.60;;;;;;8426150;28;20058;-44
2023/05/26 17:57:51;;;;;;;0.90;0.90;;;20.20;57.60;;;;;;8425776;28;20558;-44
2023/05/26 18:01:52;;;;;;;1.27;1.17;;;20.20;57.60;;;;;;8441576;28;20024;-44
2023/05/26 18:05:52;;;;;;;1.27;1.17;;;20.20;57.60;;;;;;8425393;28;20369;-44
2023/05/26 18:09:53;;;;;;;1.20;1.10;;;20.20;57.60;;;;;;8425722;28;20039;-44
2023/05/26 18:13:54;;;;;;;1.25;1.15;;;20.20;57.60;;;;;;8425587;28;20024;-44
2023/05/26 18:17:55;;;;;;;1.30;1.20;;;20.20;57.60;;;;;;8430732;28;20024;-44
2023/05/26 18:21:55;;;;;;;1.38;1.02;;;20.20;57.60;;;;;;8432283;28;20284;-44
2023/05/26 18:25:56;;;;;;;1.48;1.38;;;20.20;57.60;;;;;;8447173;28;20024;-45
2023/05/26 18:29:59;;;;;;;1.27;1.17;;;20.20;57.60;;;;;;8431485;28;20059;-44
2023/05/26 18:34:03;;;;;;;1.30;1.20;;;20.20;57.60;;;;;;8431881;28;20016;-44
2023/05/26 18:38:03;;;;;;;2.13;1.30;;;20.20;57.60;;;;;;8447057;28;20114;-45
2023/05/26 18:42:05;;;;;;;3.05;1.67;;;20.20;57.60;;;;;;8431107;28;20039;-44
2023/05/26 18:46:05;;;;;;;1.17;1.08;;;20.20;57.60;;;;;;8430906;28;20024;-45
2023/05/26 18:50:09;;;;;;;1.50;1.40;;;20.20;57.60;;;;;;8430908;28;20035;-44
2023/05/26 18:54:11;;;;;;;1.73;1.35;;;20.20;57.60;;;;;;8430991;28;20273;-44
2023/05/26 18:58:12;;;;;;;1.33;1.23;;;20.20;57.60;;;;;;8431027;28;20028;-44
2023/05/26 19:02:12;;;;;;;1.17;1.07;;;20.20;57.60;;;;;;8430489;28;20028;-44
2023/05/26 19:06:13;;;;;;;1.50;1.40;;;20.20;57.60;;;;;;8430086;28;20177;-44
2023/05/26 19:10:15;;;;;;;1.08;0.98;;;20.20;57.60;;;;;;8430485;28;20126;-44
2023/05/26 19:14:16;;;;;;;1.48;1.27;;;20.20;57.60;;;;;;8430038;28;20028;-44
2023/05/26 19:18:17;;;;;;;1.00;1.00;;;20.20;57.60;;;;;;8430138;28;20036;-44
2023/05/26 19:22:17;;;;;;;1.00;0.98;;;20.20;57.60;;;;;;8430113;28;20282;-44
2023/05/26 19:26:18;;;;;;;1.13;1.00;;;20.20;57.60;;;;;;8429633;28;20114;-44
2023/05/26 19:30:19;;;;;;;1.23;1.05;;;20.10;57.60;;;;;;8429057;28;20285;-44
2023/05/26 19:34:19;;;;;;;1.13;1.02;;;20.20;57.70;;;;;;8429653;28;20631;-45
2023/05/26 19:38:20;;;;;;;1.45;1.27;;;20.20;57.70;;;;;;8429351;28;20039;-44
2023/05/26 19:42:21;;;;;;;2.10;1.20;;;20.20;57.70;;;;;;8429509;28;20027;-44
2023/05/26 19:46:21;;;;;;;1.30;1.20;;;20.20;57.70;;;;;;8429271;28;20092;-45
2023/05/26 19:50:22;;;;;;;0.93;0.88;;;20.20;57.70;;;;;;8429382;28;20411;-45
2023/05/26 19:54:23;;;;;;;1.30;1.20;;;20.20;57.60;;;;;;8429282;28;20112;-44
2023/05/26 19:58:24;;;;;;;1.25;1.13;;;20.20;57.60;;;;;;8428773;28;20278;-43
2023/05/26 20:02:25;;;;;;;1.13;0.90;;;20.20;57.60;;;;;;8428649;28;20028;-44
2023/05/26 20:06:26;;;;;;;0.82;0.82;;;20.20;57.60;;;;;;8410421;28;20566;-44
2023/05/26 20:10:26;;;;;;;0.93;0.93;;;20.20;57.60;;;;;;8428502;28;20094;-45
2023/05/26 20:14:27;;;;;;;0.97;0.90;;;20.20;57.60;;;;;;8428134;28;20032;-44
2023/05/26 20:18:28;;;;;;;1.23;1.10;;;20.20;57.60;;;;;;8428203;28;20128;-43
2023/05/26 20:22:28;;;;;;;1.15;1.05;;;20.20;57.60;;;;;;8428454;28;20110;-45
2023/05/26 20:26:29;;;;;;;1.17;1.07;;;20.20;57.60;;;;;;8427864;28;20081;-44
2023/05/26 20:30:30;;;;;;;1.10;1.00;;;20.20;57.60;;;;;;8427692;28;20274;-44
2023/05/26 20:34:30;;;;;;;0.97;0.90;;;20.20;57.70;;;;;;8427702;28;20091;-45
2023/05/26 20:38:31;;;;;;;1.00;0.90;;;20.20;57.70;;;;;;8427507;28;20269;-44
2023/05/26 20:42:32;;;;;;;1.10;1.00;;;20.20;57.60;;;;;;8427586;28;20074;-44
2023/05/26 20:46:33;;;;;;;;;;;20.20;57.60;;;;;;8409544;28;20367;-44
2023/05/26 20:50:34;;;;;;;1.30;1.00;;;20.20;57.60;;;;;;8427508;28;19904;-44
2023/05/26 20:54:35;;;;;;;1.48;1.20;;;20.20;57.60;;;;;;8427475;28;20128;-44
2023/05/26 20:58:35;;;;;;;0.73;0.73;;;20.20;57.70;;;;;;8427572;28;20027;-44
2023/05/26 21:02:36;;;;;;;1.52;1.10;;;20.20;57.70;;;;;;8427121;28;20032;-45